createdAt,value
2018-12-25T00:00:08.449Z,1025.53
2018-12-25T00:01:08.434Z,1025.49
2018-12-25T00:02:08.416Z,1025.46
2018-12-25T00:03:08.406Z,1025.46
2018-12-25T00:04:08.393Z,1025.49
2018-12-25T00:05:08.417Z,1025.50
2018-12-25T00:06:08.374Z,1025.52
2018-12-25T00:07:08.413Z,1025.57
2018-12-25T00:08:08.356Z,1025.59
2018-12-25T00:09:08.338Z,1025.58
2018-12-25T00:10:08.356Z,1025.59
2018-12-25T00:11:08.317Z,1025.57
2018-12-25T00:12:08.304Z,1025.53
2018-12-25T00:13:08.327Z,1025.53
2018-12-25T00:14:08.282Z,1025.55
2018-12-25T00:15:08.275Z,1025.54
2018-12-25T00:16:08.275Z,1025.53
2018-12-25T00:17:08.249Z,1025.51
2018-12-25T00:18:08.257Z,1025.50
2018-12-25T00:19:08.226Z,1025.47
2018-12-25T00:20:08.216Z,1025.48
2018-12-25T00:21:08.242Z,1025.46
2018-12-25T00:22:08.436Z,1025.54
2018-12-25T00:23:08.181Z,1025.52
2018-12-25T00:24:08.170Z,1025.51
2018-12-25T00:25:08.195Z,1025.51
2018-12-25T00:26:08.160Z,1025.49
2018-12-25T00:27:08.143Z,1025.49
2018-12-25T00:28:08.147Z,1025.47
2018-12-25T00:29:08.115Z,1025.46
2018-12-25T00:30:08.124Z,1025.47
2018-12-25T00:31:08.105Z,1025.46
2018-12-25T00:32:08.091Z,1025.54
2018-12-25T00:33:08.088Z,1025.51
2018-12-25T00:34:08.059Z,1025.55
2018-12-25T00:35:08.046Z,1025.57
2018-12-25T00:36:08.100Z,1025.59
2018-12-25T00:37:08.027Z,1025.61
2018-12-25T00:38:08.031Z,1025.61
2018-12-25T00:39:08.001Z,1025.61
2018-12-25T00:40:08.002Z,1025.61
2018-12-25T00:41:08.044Z,1025.58
2018-12-25T00:42:07.976Z,1025.61
2018-12-25T00:43:07.963Z,1025.62
2018-12-25T00:44:08.051Z,1025.62
2018-12-25T00:45:07.935Z,1025.62
2018-12-25T00:46:07.989Z,1025.61
2018-12-25T00:47:07.914Z,1025.61
2018-12-25T00:48:07.995Z,1025.61
2018-12-25T00:49:14.721Z,1025.63
2018-12-25T00:50:08.877Z,1025.62
2018-12-25T00:51:07.869Z,1025.62
2018-12-25T00:52:07.972Z,1025.64
2018-12-25T00:53:07.847Z,1025.64
2018-12-25T00:54:07.863Z,1025.62
2018-12-25T00:55:07.850Z,1025.61
2018-12-25T00:56:07.828Z,1025.61
2018-12-25T00:57:07.813Z,1025.62
2018-12-25T00:58:07.789Z,1025.61
2018-12-25T00:59:07.779Z,1025.58
2018-12-25T01:00:07.817Z,1025.60
2018-12-25T01:01:07.760Z,1025.59
2018-12-25T01:02:07.874Z,1025.59
2018-12-25T01:03:07.733Z,1025.62
2018-12-25T01:04:07.723Z,1025.62
2018-12-25T01:05:07.711Z,1025.63
2018-12-25T01:06:07.712Z,1025.61
2018-12-25T01:07:07.699Z,1025.62
2018-12-25T01:08:07.716Z,1025.55
2018-12-25T01:09:07.675Z,1025.57
2018-12-25T01:10:07.655Z,1025.55
2018-12-25T01:11:07.645Z,1025.59
2018-12-25T01:12:07.649Z,1025.62
2018-12-25T01:13:07.632Z,1025.56
2018-12-25T01:14:07.764Z,1025.56
2018-12-25T01:15:07.599Z,1025.60
2018-12-25T01:16:07.590Z,1025.62
2018-12-25T01:17:07.613Z,1025.64
2018-12-25T01:18:07.564Z,1025.64
2018-12-25T01:19:07.553Z,1025.62
2018-12-25T01:20:07.549Z,1025.58
2018-12-25T01:21:07.532Z,1025.61
2018-12-25T01:22:07.547Z,1025.57
2018-12-25T01:23:07.508Z,1025.58
2018-12-25T01:24:07.504Z,1025.59
2018-12-25T01:25:07.558Z,1025.58
2018-12-25T01:26:07.477Z,1025.57
2018-12-25T01:27:07.475Z,1025.60
2018-12-25T01:28:07.468Z,1025.61
2018-12-25T01:29:07.444Z,1025.57
2018-12-25T01:30:07.430Z,1025.62
2018-12-25T01:31:07.451Z,1025.61
2018-12-25T01:32:07.410Z,1025.66
2018-12-25T01:33:07.411Z,1025.65
2018-12-25T01:34:07.387Z,1025.62
2018-12-25T01:35:07.413Z,1025.63
2018-12-25T01:36:07.372Z,1025.64
2018-12-25T01:37:07.355Z,1025.74
2018-12-25T01:38:07.364Z,1025.76
2018-12-25T01:39:07.331Z,1025.80
2018-12-25T01:40:07.319Z,1025.76
2018-12-25T01:41:07.310Z,1025.79
2018-12-25T01:42:07.297Z,1025.81
2018-12-25T01:43:07.299Z,1025.82
2018-12-25T01:44:07.298Z,1025.84
2018-12-25T01:45:07.269Z,1025.85
2018-12-25T01:46:07.253Z,1025.81
2018-12-25T01:47:07.240Z,1025.80
2018-12-25T01:48:07.242Z,1025.78
2018-12-25T01:49:07.221Z,1025.75
2018-12-25T01:50:07.228Z,1025.77
2018-12-25T01:51:07.196Z,1025.80
2018-12-25T01:52:07.183Z,1025.78
2018-12-25T01:53:07.219Z,1025.72
2018-12-25T01:54:07.167Z,1025.72
2018-12-25T01:55:07.151Z,1025.79
2018-12-25T01:56:07.150Z,1025.77
2018-12-25T01:57:07.130Z,1025.80
2018-12-25T01:58:07.134Z,1025.78
2018-12-25T01:59:07.154Z,1025.77
2018-12-25T02:00:07.098Z,1025.82
2018-12-25T02:01:07.085Z,1025.82
2018-12-25T02:02:07.084Z,1025.85
2018-12-25T02:03:07.063Z,1025.82
2018-12-25T02:04:07.066Z,1025.86
2018-12-25T02:05:07.047Z,1025.82
2018-12-25T02:06:07.031Z,1025.84
2018-12-25T02:07:07.017Z,1025.86
2018-12-25T02:08:07.005Z,1025.83
2018-12-25T02:09:07.024Z,1025.81
2018-12-25T02:10:06.983Z,1025.79
2018-12-25T02:11:06.970Z,1025.79
2018-12-25T02:12:06.961Z,1025.76
2018-12-25T02:13:06.970Z,1025.66
2018-12-25T02:14:06.949Z,1025.74
2018-12-25T02:15:06.954Z,1025.79
2018-12-25T02:16:06.917Z,1025.73
2018-12-25T02:17:06.916Z,1025.82
2018-12-25T02:18:06.903Z,1025.76
2018-12-25T02:19:06.910Z,1025.81
2018-12-25T02:20:06.870Z,1025.73
2018-12-25T02:21:06.862Z,1025.74
2018-12-25T02:22:06.850Z,1025.68
2018-12-25T02:23:06.883Z,1025.61
2018-12-25T02:24:06.842Z,1025.70
2018-12-25T02:25:06.818Z,1025.63
2018-12-25T02:26:06.815Z,1025.56
2018-12-25T02:27:06.792Z,1025.59
2018-12-25T02:28:06.792Z,1025.55
2018-12-25T02:29:06.784Z,1025.58
2018-12-25T02:30:06.767Z,1025.57
2018-12-25T02:31:06.750Z,1025.54
2018-12-25T02:32:06.747Z,1025.53
2018-12-25T02:33:06.725Z,1025.62
2018-12-25T02:34:06.830Z,1025.65
2018-12-25T02:35:06.714Z,1025.69
2018-12-25T02:36:06.727Z,1025.71
2018-12-25T02:37:06.683Z,1025.71
2018-12-25T02:38:06.690Z,1025.68
2018-12-25T02:39:06.658Z,1025.71
2018-12-25T02:40:06.662Z,1025.61
2018-12-25T02:41:06.641Z,1025.63
2018-12-25T02:42:06.627Z,1025.59
2018-12-25T02:43:06.615Z,1025.50
2018-12-25T02:44:06.611Z,1025.51
2018-12-25T02:45:06.607Z,1025.50
2018-12-25T02:46:06.581Z,1025.50
2018-12-25T02:47:06.575Z,1025.53
2018-12-25T02:48:06.574Z,1025.53
2018-12-25T02:49:06.548Z,1025.53
2018-12-25T02:50:06.569Z,1025.53
2018-12-25T02:51:06.526Z,1025.51
2018-12-25T02:52:06.526Z,1025.55
2018-12-25T02:53:06.505Z,1025.51
2018-12-25T02:54:06.504Z,1025.50
2018-12-25T02:55:06.493Z,1025.49
2018-12-25T02:56:06.469Z,1025.47
2018-12-25T02:57:06.481Z,1025.47
2018-12-25T02:58:06.451Z,1025.47
2018-12-25T02:59:06.457Z,1025.43
2018-12-25T03:00:06.438Z,1025.42
2018-12-25T03:01:06.430Z,1025.41
2018-12-25T03:02:06.404Z,1025.41
2018-12-25T03:03:06.395Z,1025.38
2018-12-25T03:04:06.399Z,1025.40
2018-12-25T03:05:06.390Z,1025.35
2018-12-25T03:06:06.359Z,1025.36
2018-12-25T03:07:06.368Z,1025.36
2018-12-25T03:08:06.339Z,1025.30
2018-12-25T03:09:06.333Z,1025.31
2018-12-25T03:10:06.336Z,1025.34
2018-12-25T03:11:06.301Z,1025.31
2018-12-25T03:12:06.294Z,1025.32
2018-12-25T03:13:06.283Z,1025.31
2018-12-25T03:14:06.283Z,1025.30
2018-12-25T03:15:06.285Z,1025.27
2018-12-25T03:16:06.247Z,1025.24
2018-12-25T03:17:06.238Z,1025.24
2018-12-25T03:18:06.224Z,1025.22
2018-12-25T03:19:06.215Z,1025.26
2018-12-25T03:20:06.230Z,1025.27
2018-12-25T03:21:06.203Z,1025.26
2018-12-25T03:22:06.197Z,1025.31
2018-12-25T03:23:06.168Z,1025.29
2018-12-25T03:24:06.162Z,1025.28
2018-12-25T03:25:06.146Z,1025.25
2018-12-25T03:26:06.161Z,1025.27
2018-12-25T03:27:06.132Z,1025.29
2018-12-25T03:28:06.119Z,1025.24
2018-12-25T03:29:06.103Z,1025.25
2018-12-25T03:30:06.098Z,1025.27
2018-12-25T03:31:06.093Z,1025.27
2018-12-25T03:32:06.071Z,1025.22
2018-12-25T03:33:06.076Z,1025.20
2018-12-25T03:34:06.072Z,1025.24
2018-12-25T03:35:06.037Z,1025.22
2018-12-25T03:36:06.035Z,1025.18
2018-12-25T03:37:06.014Z,1025.19
2018-12-25T03:38:06.015Z,1025.20
2018-12-25T03:39:05.993Z,1025.15
2018-12-25T03:40:06.005Z,1025.14
2018-12-25T03:41:05.978Z,1025.18
2018-12-25T03:42:05.958Z,1025.19
2018-12-25T03:43:05.947Z,1025.20
2018-12-25T03:44:05.935Z,1025.15
2018-12-25T03:45:05.944Z,1025.18
2018-12-25T03:46:05.980Z,1025.18
2018-12-25T03:47:05.911Z,1025.19
2018-12-25T03:48:05.893Z,1025.17
2018-12-25T03:49:05.879Z,1025.17
2018-12-25T03:50:10.836Z,1025.15
2018-12-25T03:51:06.866Z,1025.11
2018-12-25T03:52:05.845Z,1025.14
2018-12-25T03:53:05.840Z,1025.11
2018-12-25T03:54:05.828Z,1025.07
2018-12-25T03:55:05.872Z,1025.08
2018-12-25T03:56:05.815Z,1025.11
2018-12-25T03:57:05.795Z,1025.15
2018-12-25T03:58:05.785Z,1025.16
2018-12-25T03:59:05.769Z,1025.14
2018-12-25T04:00:05.756Z,1025.11
2018-12-25T04:01:05.799Z,1025.14
2018-12-25T04:02:05.741Z,1025.10
2018-12-25T04:03:05.725Z,1025.06
2018-12-25T04:04:05.711Z,1025.08
2018-12-25T04:05:05.704Z,1025.12
2018-12-25T04:06:05.707Z,1025.12
2018-12-25T04:07:05.694Z,1025.16
2018-12-25T04:08:05.696Z,1025.16
2018-12-25T04:09:05.656Z,1025.16
2018-12-25T04:10:05.646Z,1025.16
2018-12-25T04:11:05.667Z,1025.18
2018-12-25T04:12:05.659Z,1025.13
2018-12-25T04:13:05.627Z,1025.12
2018-12-25T04:14:05.600Z,1025.18
2018-12-25T04:15:05.592Z,1025.18
2018-12-25T04:16:05.577Z,1025.14
2018-12-25T04:17:05.582Z,1025.17
2018-12-25T04:18:05.556Z,1025.17
2018-12-25T04:19:05.565Z,1025.17
2018-12-25T04:20:05.535Z,1025.15
2018-12-25T04:21:05.529Z,1025.20
2018-12-25T04:22:05.527Z,1025.25
2018-12-25T04:23:05.502Z,1025.26
2018-12-25T04:24:05.490Z,1025.24
2018-12-25T04:25:05.483Z,1025.25
2018-12-25T04:26:05.466Z,1025.27
2018-12-25T04:27:05.471Z,1025.20
2018-12-25T04:28:05.454Z,1025.21
2018-12-25T04:29:05.432Z,1025.18
2018-12-25T04:30:05.424Z,1025.20
2018-12-25T04:31:05.441Z,1025.20
2018-12-25T04:32:05.416Z,1025.18
2018-12-25T04:33:05.389Z,1025.18
2018-12-25T04:34:05.378Z,1025.18
2018-12-25T04:35:05.371Z,1025.15
2018-12-25T04:36:05.362Z,1025.12
2018-12-25T04:37:05.412Z,1025.12
2018-12-25T04:38:05.337Z,1025.10
2018-12-25T04:39:05.324Z,1025.13
2018-12-25T04:40:05.309Z,1025.11
2018-12-25T04:41:05.297Z,1025.09
2018-12-25T04:42:05.299Z,1025.12
2018-12-25T04:43:05.287Z,1025.14
2018-12-25T04:44:05.270Z,1025.12
2018-12-25T04:45:05.258Z,1025.13
2018-12-25T04:46:05.242Z,1025.12
2018-12-25T04:47:05.242Z,1025.13
2018-12-25T04:48:05.220Z,1025.08
2018-12-25T04:49:05.231Z,1025.10
2018-12-25T04:50:05.202Z,1025.08
2018-12-25T04:51:05.190Z,1025.10
2018-12-25T04:52:05.218Z,1025.16
2018-12-25T04:53:05.183Z,1025.15
2018-12-25T04:54:05.171Z,1025.15
2018-12-25T04:55:05.152Z,1025.12
2018-12-25T04:56:05.134Z,1025.13
2018-12-25T04:57:05.121Z,1025.17
2018-12-25T04:58:05.118Z,1025.14
2018-12-25T04:59:05.097Z,1025.18
2018-12-25T05:00:05.087Z,1025.17
2018-12-25T05:01:05.094Z,1025.17
2018-12-25T05:02:05.062Z,1025.15
2018-12-25T05:03:05.062Z,1025.12
2018-12-25T05:04:05.042Z,1025.18
2018-12-25T05:05:05.031Z,1025.15
2018-12-25T05:06:05.018Z,1025.13
2018-12-25T05:07:05.042Z,1025.17
2018-12-25T05:08:05.020Z,1025.16
2018-12-25T05:09:04.984Z,1025.14
2018-12-25T05:10:04.972Z,1025.12
2018-12-25T05:11:04.980Z,1025.15
2018-12-25T05:12:04.954Z,1025.21
2018-12-25T05:13:04.959Z,1025.21
2018-12-25T05:14:04.958Z,1025.25
2018-12-25T05:15:04.917Z,1025.25
2018-12-25T05:16:04.915Z,1025.31
2018-12-25T05:17:04.915Z,1025.31
2018-12-25T05:18:04.900Z,1025.35
2018-12-25T05:19:04.890Z,1025.32
2018-12-25T05:20:04.862Z,1025.29
2018-12-25T05:21:04.851Z,1025.26
2018-12-25T05:22:04.838Z,1025.28
2018-12-25T05:23:04.839Z,1025.26
2018-12-25T05:24:04.823Z,1025.27
2018-12-25T05:25:04.844Z,1025.26
2018-12-25T05:26:04.800Z,1025.29
2018-12-25T05:27:04.781Z,1025.21
2018-12-25T05:28:04.817Z,1025.24
2018-12-25T05:29:04.767Z,1025.27
2018-12-25T05:30:04.763Z,1025.23
2018-12-25T05:31:04.739Z,1025.23
2018-12-25T05:32:04.727Z,1025.23
2018-12-25T05:33:04.745Z,1025.15
2018-12-25T05:34:04.703Z,1025.17
2018-12-25T05:35:04.694Z,1025.19
2018-12-25T05:36:04.685Z,1025.20
2018-12-25T05:37:04.670Z,1025.22
2018-12-25T05:38:04.695Z,1025.22
2018-12-25T05:39:04.652Z,1025.21
2018-12-25T05:40:04.656Z,1025.18
2018-12-25T05:41:04.647Z,1025.19
2018-12-25T05:42:04.621Z,1025.19
2018-12-25T05:43:04.613Z,1025.18
2018-12-25T05:44:04.618Z,1025.20
2018-12-25T05:45:04.580Z,1025.17
2018-12-25T05:46:04.573Z,1025.14
2018-12-25T05:47:04.579Z,1025.22
2018-12-25T05:48:04.565Z,1025.15
2018-12-25T05:49:04.537Z,1025.14
2018-12-25T05:50:04.534Z,1025.12
2018-12-25T05:51:04.516Z,1025.16
2018-12-25T05:52:04.511Z,1025.18
2018-12-25T05:53:04.514Z,1025.16
2018-12-25T05:54:04.482Z,1025.16
2018-12-25T05:55:04.469Z,1025.20
2018-12-25T05:56:04.473Z,1025.16
2018-12-25T05:57:04.446Z,1025.22
2018-12-25T05:58:04.466Z,1025.24
2018-12-25T05:59:04.424Z,1025.21
2018-12-25T06:00:04.417Z,1025.26
2018-12-25T06:01:04.402Z,1025.26
2018-12-25T06:02:04.391Z,1025.29
2018-12-25T06:03:04.401Z,1025.34
2018-12-25T06:04:04.401Z,1025.30
2018-12-25T06:05:04.360Z,1025.33
2018-12-25T06:06:04.350Z,1025.34
2018-12-25T06:07:04.336Z,1025.34
2018-12-25T06:08:04.322Z,1025.33
2018-12-25T06:09:04.325Z,1025.35
2018-12-25T06:10:04.335Z,1025.40
2018-12-25T06:11:04.296Z,1025.39
2018-12-25T06:12:04.279Z,1025.37
2018-12-25T06:13:04.268Z,1025.36
2018-12-25T06:14:04.271Z,1025.37
2018-12-25T06:15:04.251Z,1025.35
2018-12-25T06:16:04.290Z,1025.32
2018-12-25T06:17:04.227Z,1025.32
2018-12-25T06:18:04.211Z,1025.28
2018-12-25T06:19:04.214Z,1025.29
2018-12-25T06:20:04.190Z,1025.28
2018-12-25T06:21:04.179Z,1025.30
2018-12-25T06:22:04.187Z,1025.28
2018-12-25T06:23:04.162Z,1025.27
2018-12-25T06:24:04.158Z,1025.25
2018-12-25T06:25:04.133Z,1025.25
2018-12-25T06:26:04.123Z,1025.21
2018-12-25T06:27:04.111Z,1025.27
2018-12-25T06:28:04.101Z,1025.24
2018-12-25T06:29:04.131Z,1025.24
2018-12-25T06:30:04.078Z,1025.26
2018-12-25T06:31:04.069Z,1025.29
2018-12-25T06:32:04.055Z,1025.28
2018-12-25T06:33:04.045Z,1025.24
2018-12-25T06:34:04.046Z,1025.24
2018-12-25T06:35:04.021Z,1025.25
2018-12-25T06:36:04.048Z,1025.21
2018-12-25T06:37:04.000Z,1025.18
2018-12-25T06:38:03.987Z,1025.22
2018-12-25T06:39:04.002Z,1025.19
2018-12-25T06:40:03.999Z,1025.18
2018-12-25T06:41:03.957Z,1025.19
2018-12-25T06:42:03.943Z,1025.24
2018-12-25T06:43:03.938Z,1025.23
2018-12-25T06:44:03.932Z,1025.22
2018-12-25T06:45:03.912Z,1025.22
2018-12-25T06:46:03.899Z,1025.13
2018-12-25T06:47:03.888Z,1025.12
2018-12-25T06:48:03.875Z,1025.12
2018-12-25T06:49:04.055Z,1025.05
2018-12-25T06:50:03.853Z,1025.05
2018-12-25T06:51:04.296Z,1025.07
2018-12-25T06:52:03.835Z,1025.08
2018-12-25T06:53:03.821Z,1025.09
2018-12-25T06:54:03.812Z,1025.12
2018-12-25T06:55:03.836Z,1025.13
2018-12-25T06:56:03.788Z,1025.12
2018-12-25T06:57:03.777Z,1025.16
2018-12-25T06:58:03.763Z,1025.10
2018-12-25T06:59:03.753Z,1025.05
2018-12-25T07:00:03.751Z,1025.06
2018-12-25T07:01:03.742Z,1025.01
2018-12-25T07:02:03.733Z,1025.08
2018-12-25T07:03:03.718Z,1025.09
2018-12-25T07:04:03.704Z,1025.11
2018-12-25T07:05:03.705Z,1025.08
2018-12-25T07:06:03.678Z,1025.09
2018-12-25T07:07:03.696Z,1025.12
2018-12-25T07:08:03.659Z,1025.10
2018-12-25T07:09:03.648Z,1025.12
2018-12-25T07:10:03.642Z,1025.13
2018-12-25T07:11:03.621Z,1025.07
2018-12-25T07:12:03.607Z,1025.08
2018-12-25T07:13:03.595Z,1025.06
2018-12-25T07:14:03.585Z,1025.04
2018-12-25T07:15:03.615Z,1025.06
2018-12-25T07:16:03.563Z,1025.05
2018-12-25T07:17:03.549Z,1025.05
2018-12-25T07:18:03.544Z,1025.05
2018-12-25T07:19:03.531Z,1025.07
2018-12-25T07:20:03.527Z,1025.03
2018-12-25T07:21:11.967Z,1025.05
2018-12-25T07:22:04.495Z,1025.11
2018-12-25T07:23:03.483Z,1025.06
2018-12-25T07:24:03.471Z,1025.03
2018-12-25T07:25:03.496Z,1025.02
2018-12-25T07:26:03.477Z,1024.98
2018-12-25T07:27:03.441Z,1024.98
2018-12-25T07:28:03.460Z,1024.95
2018-12-25T07:29:03.415Z,1024.95
2018-12-25T07:30:03.416Z,1024.97
2018-12-25T07:31:03.433Z,1024.93
2018-12-25T07:32:03.384Z,1024.89
2018-12-25T07:33:03.382Z,1024.90
2018-12-25T07:34:03.377Z,1024.94
2018-12-25T07:35:03.362Z,1024.95
2018-12-25T07:36:03.338Z,1024.98
2018-12-25T07:37:03.326Z,1024.99
2018-12-25T07:38:03.320Z,1025.04
2018-12-25T07:39:03.333Z,1025.02
2018-12-25T07:40:03.304Z,1025.03
2018-12-25T07:41:03.287Z,1024.99
2018-12-25T07:42:03.287Z,1025.08
2018-12-25T07:43:03.261Z,1025.15
2018-12-25T07:44:03.262Z,1025.10
2018-12-25T07:45:03.250Z,1025.15
2018-12-25T07:46:03.226Z,1025.15
2018-12-25T07:47:03.218Z,1025.12
2018-12-25T07:48:03.224Z,1025.14
2018-12-25T07:49:03.196Z,1025.13
2018-12-25T07:50:03.221Z,1025.15
2018-12-25T07:51:03.171Z,1025.10
2018-12-25T07:52:03.163Z,1025.08
2018-12-25T07:53:03.148Z,1025.07
2018-12-25T07:54:03.141Z,1025.05
2018-12-25T07:55:03.128Z,1025.09
2018-12-25T07:56:03.132Z,1025.04
2018-12-25T07:57:03.103Z,1024.99
2018-12-25T07:58:03.137Z,1024.98
2018-12-25T07:59:03.081Z,1024.94
2018-12-25T08:00:03.073Z,1024.94
2018-12-25T08:01:03.086Z,1024.94
2018-12-25T08:02:03.070Z,1024.93
2018-12-25T08:03:03.038Z,1024.90
2018-12-25T08:04:03.027Z,1024.87
2018-12-25T08:05:03.015Z,1024.87
2018-12-25T08:06:03.023Z,1024.91
2018-12-25T08:07:03.019Z,1024.91
2018-12-25T08:08:02.998Z,1024.93
2018-12-25T08:09:02.970Z,1024.96
2018-12-25T08:10:02.958Z,1024.97
2018-12-25T08:11:02.968Z,1024.94
2018-12-25T08:12:02.941Z,1024.95
2018-12-25T08:13:02.925Z,1024.93
2018-12-25T08:14:02.947Z,1024.93
2018-12-25T08:15:02.904Z,1024.93
2018-12-25T08:16:02.904Z,1024.96
2018-12-25T08:17:02.879Z,1024.95
2018-12-25T08:18:02.869Z,1024.93
2018-12-25T08:19:02.860Z,1024.98
2018-12-25T08:20:02.848Z,1025.01
2018-12-25T08:21:02.883Z,1025.07
2018-12-25T08:22:02.825Z,1025.04
2018-12-25T08:23:02.970Z,1025.00
2018-12-25T08:24:02.811Z,1024.94
2018-12-25T08:25:02.791Z,1024.91
2018-12-25T08:26:02.792Z,1024.89
2018-12-25T08:27:02.776Z,1024.85
2018-12-25T08:28:02.757Z,1024.78
2018-12-25T08:29:02.747Z,1024.81
2018-12-25T08:30:02.744Z,1024.84
2018-12-25T08:31:02.735Z,1024.83
2018-12-25T08:32:02.712Z,1024.88
2018-12-25T08:33:02.714Z,1024.82
2018-12-25T08:34:02.715Z,1024.89
2018-12-25T08:35:02.683Z,1024.85
2018-12-25T08:36:02.679Z,1024.83
2018-12-25T08:37:02.657Z,1024.81
2018-12-25T08:38:02.646Z,1024.84
2018-12-25T08:39:02.644Z,1024.84
2018-12-25T08:40:02.638Z,1024.79
2018-12-25T08:41:02.632Z,1024.77
2018-12-25T08:42:02.598Z,1024.67
2018-12-25T08:43:02.598Z,1024.70
2018-12-25T08:44:02.576Z,1024.74
2018-12-25T08:45:02.577Z,1024.68
2018-12-25T08:46:02.582Z,1024.66
2018-12-25T08:47:02.879Z,1024.71
2018-12-25T08:48:02.535Z,1024.62
2018-12-25T08:49:02.520Z,1024.61
2018-12-25T08:50:02.513Z,1024.60
2018-12-25T08:51:02.505Z,1024.64
2018-12-25T08:52:02.505Z,1024.72
2018-12-25T08:53:02.490Z,1024.78
2018-12-25T08:54:02.464Z,1024.84
2018-12-25T08:55:02.458Z,1024.89
2018-12-25T08:56:02.445Z,1024.92
2018-12-25T08:57:02.540Z,1025.02
2018-12-25T08:58:02.421Z,1025.02
2018-12-25T08:59:02.414Z,1025.07
2018-12-25T09:00:02.405Z,1025.08
2018-12-25T09:01:02.390Z,1025.05
2018-12-25T09:02:02.387Z,1025.09
2018-12-25T09:03:02.382Z,1025.06
2018-12-25T09:04:02.357Z,1025.07
2018-12-25T09:05:02.344Z,1025.08
2018-12-25T09:06:02.332Z,1025.07
2018-12-25T09:07:02.332Z,1025.11
2018-12-25T09:08:02.310Z,1025.22
2018-12-25T09:09:02.297Z,1025.20
2018-12-25T09:10:02.375Z,1025.28
2018-12-25T09:11:02.287Z,1025.27
2018-12-25T09:12:02.276Z,1025.26
2018-12-25T09:13:02.252Z,1025.24
2018-12-25T09:14:02.241Z,1025.22
2018-12-25T09:15:02.232Z,1025.25
2018-12-25T09:16:02.219Z,1025.20
2018-12-25T09:17:02.225Z,1025.20
2018-12-25T09:18:02.205Z,1025.20
2018-12-25T09:19:02.186Z,1025.23
2018-12-25T09:20:02.197Z,1025.22
2018-12-25T09:21:02.162Z,1025.21
2018-12-25T09:22:02.163Z,1025.24
2018-12-25T09:23:02.142Z,1025.27
2018-12-25T09:24:02.148Z,1025.27
2018-12-25T09:25:02.120Z,1025.29
2018-12-25T09:26:02.111Z,1025.28
2018-12-25T09:27:02.112Z,1025.31
2018-12-25T09:28:02.094Z,1025.32
2018-12-25T09:29:02.079Z,1025.24
2018-12-25T09:30:02.064Z,1025.31
2018-12-25T09:31:02.052Z,1025.29
2018-12-25T09:32:02.050Z,1025.30
2018-12-25T09:33:02.087Z,1025.31
2018-12-25T09:34:02.017Z,1025.29
2018-12-25T09:35:02.019Z,1025.27
2018-12-25T09:36:02.020Z,1025.27
2018-12-25T09:37:02.003Z,1025.27
2018-12-25T09:38:01.998Z,1025.26
2018-12-25T09:39:01.964Z,1025.26
2018-12-25T09:40:01.962Z,1025.29
2018-12-25T09:41:01.944Z,1025.25
2018-12-25T09:42:01.943Z,1025.24
2018-12-25T09:43:01.954Z,1025.24
2018-12-25T09:44:01.906Z,1025.16
2018-12-25T09:45:01.905Z,1025.15
2018-12-25T09:46:01.908Z,1025.07
2018-12-25T09:47:01.890Z,1025.04
2018-12-25T09:48:01.862Z,1025.00
2018-12-25T09:49:01.853Z,1024.98
2018-12-25T09:50:01.839Z,1024.98
2018-12-25T09:51:01.827Z,1025.00
2018-12-25T09:52:01.863Z,1025.01
2018-12-25T09:53:01.815Z,1025.07
2018-12-25T09:54:01.805Z,1025.07
2018-12-25T09:55:01.783Z,1025.16
2018-12-25T09:56:01.775Z,1025.17
2018-12-25T09:57:01.787Z,1025.14
2018-12-25T09:58:01.858Z,1025.16
2018-12-25T09:59:01.744Z,1025.16
2018-12-25T10:00:01.731Z,1025.20
2018-12-25T10:01:01.742Z,1025.20
2018-12-25T10:02:01.705Z,1025.22
2018-12-25T10:03:01.706Z,1025.22
2018-12-25T10:04:01.682Z,1025.25
2018-12-25T10:05:01.678Z,1025.28
2018-12-25T10:06:01.680Z,1025.24
2018-12-25T10:07:01.682Z,1025.21
2018-12-25T10:08:01.663Z,1025.19
2018-12-25T10:09:01.665Z,1025.21
2018-12-25T10:10:01.635Z,1025.18
2018-12-25T10:11:01.629Z,1025.16
2018-12-25T10:12:01.593Z,1025.17
2018-12-25T10:13:01.598Z,1025.17
2018-12-25T10:14:01.609Z,1025.20
2018-12-25T10:15:01.561Z,1025.20
2018-12-25T10:16:01.552Z,1025.23
2018-12-25T10:17:01.544Z,1025.16
2018-12-25T10:18:01.538Z,1025.17
2018-12-25T10:19:01.518Z,1025.22
2018-12-25T10:20:01.516Z,1025.23
2018-12-25T10:21:01.495Z,1025.23
2018-12-25T10:22:03.014Z,1025.19
2018-12-25T10:23:01.498Z,1025.19
2018-12-25T10:24:01.463Z,1025.22
2018-12-25T10:25:01.455Z,1025.14
2018-12-25T10:26:01.468Z,1025.15
2018-12-25T10:27:01.439Z,1025.16
2018-12-25T10:28:01.426Z,1025.16
2018-12-25T10:29:01.425Z,1025.18
2018-12-25T10:30:01.401Z,1025.17
2018-12-25T10:31:01.386Z,1025.07
2018-12-25T10:32:01.373Z,1025.12
2018-12-25T10:33:01.384Z,1025.10
2018-12-25T10:34:01.355Z,1025.08
2018-12-25T10:35:01.353Z,1025.08
2018-12-25T10:36:01.324Z,1025.11
2018-12-25T10:37:01.315Z,1025.13
2018-12-25T10:38:01.308Z,1025.11
2018-12-25T10:39:01.329Z,1025.10
2018-12-25T10:40:01.281Z,1025.09
2018-12-25T10:41:01.273Z,1025.07
2018-12-25T10:42:01.262Z,1025.06
2018-12-25T10:43:01.251Z,1025.07
2018-12-25T10:44:01.259Z,1025.07
2018-12-25T10:45:01.241Z,1025.04
2018-12-25T10:46:01.290Z,1025.07
2018-12-25T10:47:01.201Z,1025.07
2018-12-25T10:48:01.193Z,1025.02
2018-12-25T10:49:01.272Z,1025.05
2018-12-25T10:50:01.168Z,1025.08
2018-12-25T10:51:01.159Z,1025.07
2018-12-25T10:52:01.162Z,1025.08
2018-12-25T10:53:01.136Z,1025.03
2018-12-25T10:54:01.136Z,1025.05
2018-12-25T10:55:01.126Z,1025.11
2018-12-25T10:56:01.102Z,1025.12
2018-12-25T10:57:01.094Z,1025.13
2018-12-25T10:58:01.078Z,1025.14
2018-12-25T10:59:01.079Z,1025.12
2018-12-25T11:00:01.059Z,1025.09
2018-12-25T11:01:01.079Z,1025.08
2018-12-25T11:02:01.035Z,1025.05
2018-12-25T11:03:01.025Z,1025.07
2018-12-25T11:04:01.022Z,1025.09
2018-12-25T11:05:01.002Z,1025.05
2018-12-25T11:06:01.003Z,1025.07
2018-12-25T11:07:01.007Z,1025.08
2018-12-25T11:08:00.990Z,1024.99
2018-12-25T11:09:01.834Z,1024.98
2018-12-25T11:10:00.991Z,1025.06
2018-12-25T11:11:00.933Z,1025.06
2018-12-25T11:12:00.921Z,1025.07
2018-12-25T11:13:00.911Z,1025.06
2018-12-25T11:14:00.928Z,1025.03
2018-12-25T11:15:00.908Z,1025.02
2018-12-25T11:16:00.883Z,1025.04
2018-12-25T11:17:00.865Z,1025.07
2018-12-25T11:18:00.856Z,1025.03
2018-12-25T11:19:00.846Z,1025.05
2018-12-25T11:20:00.844Z,1025.04
2018-12-25T11:21:00.822Z,1025.02
2018-12-25T11:22:00.814Z,1025.08
2018-12-25T11:23:00.813Z,1025.11
2018-12-25T11:24:00.786Z,1025.07
2018-12-25T11:25:00.812Z,1025.03
2018-12-25T11:26:00.772Z,1025.00
2018-12-25T11:27:00.794Z,1025.02
2018-12-25T11:28:00.752Z,1025.03
2018-12-25T11:29:00.730Z,1025.01
2018-12-25T11:30:00.744Z,1025.02
2018-12-25T11:31:00.709Z,1024.96
2018-12-25T11:32:00.702Z,1024.93
2018-12-25T11:33:00.693Z,1024.99
2018-12-25T11:34:02.573Z,1024.91
2018-12-25T11:35:00.677Z,1024.94
2018-12-25T11:36:00.659Z,1024.89
2018-12-25T11:37:00.641Z,1024.98
2018-12-25T11:38:00.674Z,1024.94
2018-12-25T11:39:00.620Z,1024.94
2018-12-25T11:40:00.626Z,1024.94
2018-12-25T11:41:00.600Z,1024.97
2018-12-25T11:42:00.586Z,1024.94
2018-12-25T11:43:00.578Z,1024.91
2018-12-25T11:44:00.564Z,1024.90
2018-12-25T11:45:00.562Z,1024.90
2018-12-25T11:46:00.547Z,1024.88
2018-12-25T11:47:00.540Z,1024.91
2018-12-25T11:48:00.520Z,1024.91
2018-12-25T11:49:00.506Z,1024.89
2018-12-25T11:50:00.520Z,1024.89
2018-12-25T11:51:00.495Z,1024.83
2018-12-25T11:52:00.498Z,1024.80
2018-12-25T11:53:00.460Z,1024.87
2018-12-25T11:54:00.469Z,1024.75
2018-12-25T11:55:00.452Z,1024.74
2018-12-25T11:56:00.431Z,1024.77
2018-12-25T11:57:00.438Z,1024.76
2018-12-25T11:58:00.409Z,1024.82
2018-12-25T11:59:00.394Z,1024.81
2018-12-25T12:00:00.455Z,1024.82
2018-12-25T12:01:00.393Z,1024.82
2018-12-25T12:02:00.359Z,1024.81
2018-12-25T12:03:00.347Z,1024.83
2018-12-25T12:04:00.340Z,1024.79
2018-12-25T12:05:00.326Z,1024.76